Time;durP1;ratioP1;P1;durP2;ratioP2;P2;SDS_P1;SDS_P2;PMS_P1;PMS_P2;Temp;Humidity;BMP_temperature;BMP_pressure;BME280_temperature;BME280_humidity;BME280_pressure;Samples;Min_cycle;Max_cycle;Signal;HPM_P1;HPM_P2
2022/03/14 00:04:05;;;;;;;2.65;2.35;;;;;;;17.07;48.58;96957.88;10467064;28;20036;-22
2022/03/14 00:09:10;;;;;;;4.50;3.10;;;;;;;16.99;48.80;96960.31;10465137;28;20044;-22
2022/03/14 00:14:10;;;;;;;2.95;2.47;;;;;;;17.05;48.68;96980.63;10468332;28;20607;-21
2022/03/14 00:19:14;;;;;;;5.00;3.20;;;;;;;17.04;48.73;96993.25;10440995;28;20086;-22
2022/03/14 00:24:15;;;;;;;3.63;3.20;;;;;;;17.05;48.44;97016.03;10464270;28;20488;-21
2022/03/14 00:29:17;;;;;;;3.03;2.60;;;;;;;17.04;48.73;97036.25;10431371;28;20036;-23
2022/03/14 00:34:17;;;;;;;3.95;2.80;;;;;;;17.05;48.71;97040.47;10415786;28;20033;-21
2022/03/14 00:39:18;;;;;;;3.53;2.80;;;;;;;17.05;48.81;97045.53;10439775;28;20040;-20
2022/03/14 00:44:18;;;;;;;3.85;2.50;;;;;;;17.03;48.66;97037.09;10472837;28;20294;-22
2022/03/14 00:49:19;;;;;;;3.83;2.60;;;;;;;17.13;52.17;97059.13;10463463;28;20030;-21
2022/03/14 00:54:19;;;;;;;4.47;2.90;;;;;;;17.18;52.16;97070.16;10475134;28;20282;-22
2022/03/14 00:59:20;;;;;;;5.50;3.00;;;;;;;17.13;51.42;97076.81;10460296;28;20041;-20
2022/03/14 01:04:21;;;;;;;2.88;2.50;;;;;;;17.09;48.88;97087.75;10466583;28;20039;-21
2022/03/14 01:09:21;;;;;;;3.40;2.75;;;;;;;17.06;48.99;97100.38;10471409;28;20025;-20
2022/03/14 01:14:22;;;;;;;3.22;2.60;;;;;;;17.05;48.83;97107.09;10435969;28;20039;-20
2022/03/14 01:19:22;;;;;;;3.25;2.38;;;;;;;17.04;48.99;97117.19;10473006;28;20091;-23
2022/03/14 01:24:24;;;;;;;2.88;2.42;;;;;;;17.04;48.97;97127.31;10460627;28;20102;-21
2022/03/14 01:29:26;;;;;;;6.50;3.17;;;;;;;17.03;48.74;97133.22;10452780;28;20035;-20
2022/03/14 01:34:27;;;;;;;2.88;2.40;;;;;;;17.01;49.01;97155.09;10466552;28;20048;-20
2022/03/14 01:39:27;;;;;;;3.05;2.60;;;;;;;17.04;48.69;97160.19;10476031;28;20055;-22
2022/03/14 01:44:28;;;;;;;4.15;2.60;;;;;;;17.03;48.84;97164.44;10470767;28;20400;-21
2022/03/14 01:49:29;;;;;;;2.30;1.83;;;;;;;17.04;48.92;97157.66;10459460;28;20049;-21
2022/03/14 01:54:29;;;;;;;3.78;2.28;;;;;;;17.06;51.22;97164.44;10460569;28;20477;-22
2022/03/14 01:59:30;;;;;;;6.82;2.58;;;;;;;17.13;52.02;97166.22;10471074;28;20041;-21
2022/03/14 02:04:47;;;;;;;2.50;2.15;;;;;;;17.13;51.69;97178.00;10453958;28;20074;-21
2022/03/14 02:09:49;;;;;;;3.42;2.28;;;;;;;17.09;49.02;97176.28;10447748;28;20614;-20
2022/03/14 02:14:49;;;;;;;2.17;1.73;;;;;;;17.06;48.94;97194.81;10466114;28;20107;-21
2022/03/14 02:19:51;;;;;;;2.65;2.00;;;;;;;17.03;48.96;97189.72;10472438;28;20216;-21
2022/03/14 02:24:52;;;;;;;3.03;2.10;;;;;;;17.01;48.75;97191.38;10469931;28;20166;-21
2022/03/14 02:29:52;;;;;;;2.95;2.25;;;;;;;17.02;48.89;97182.97;10471256;28;20150;-21
2022/03/14 02:34:52;;;;;;;2.72;2.05;;;;;;;17.03;48.61;97209.09;10464607;28;20184;-22
2022/03/14 02:39:53;;;;;;;2.27;2.00;;;;;;;17.02;48.57;97202.34;10471928;28;20392;-22
2022/03/14 02:44:53;;;;;;;2.25;2.00;;;;;;;17.01;48.58;97198.09;10461412;28;20297;-23
2022/03/14 02:49:54;;;;;;;1.73;1.63;;;;;;;17.01;48.74;97210.75;10464721;28;20028;-23
2022/03/14 02:54:54;;;;;;;4.25;1.83;;;;;;;17.00;48.75;97214.13;10470099;28;20262;-22
2022/03/14 02:59:56;;;;;;;3.33;2.33;;;;;;;17.01;48.61;97220.88;10461552;28;20040;-22
2022/03/14 03:04:57;;;;;;;2.97;2.42;;;;;;;17.10;51.89;97221.84;10467805;28;20052;-22
2022/03/14 03:09:57;;;;;;;3.95;2.00;;;;;;;17.15;52.06;97229.50;10468115;28;20028;-21
2022/03/14 03:14:59;;;;;;;2.75;2.28;;;;;;;17.10;50.87;97247.16;10462395;28;20064;-22
2022/03/14 03:20:01;;;;;;;2.33;1.70;;;;;;;17.04;49.08;97267.31;10465495;28;20070;-21
2022/03/14 03:25:01;;;;;;;2.38;2.00;;;;;;;17.02;48.52;97268.97;10467132;28;20111;-21
2022/03/14 03:30:03;;;;;;;2.38;2.10;;;;;;;17.04;48.80;97286.69;10466767;28;20074;-21
2022/03/14 03:35:04;;;;;;;2.13;1.55;;;;;;;16.98;48.46;97281.56;10459167;28;20040;-21
2022/03/14 03:40:05;;;;;;;2.15;1.88;;;;;;;17.01;48.70;97295.09;10470973;28;20041;-21
2022/03/14 03:45:06;;;;;;;2.67;1.98;;;;;;;17.01;49.21;97311.94;10437285;28;20040;-20
2022/03/14 03:50:07;;;;;;;1.90;1.70;;;;;;;17.00;48.77;97315.31;10462497;28;20126;-21
2022/03/14 03:55:09;;;;;;;2.63;2.05;;;;;;;17.00;49.03;97315.31;10468512;28;20389;-22
2022/03/14 04:00:12;;;;;;;1.95;1.65;;;;;;;17.00;48.86;97320.34;10438340;28;20515;-21
2022/03/14 04:05:16;;;;;;;1.97;1.40;;;;;;;17.00;49.01;97341.44;10466472;28;20555;-21
2022/03/14 04:10:17;;;;;;;3.00;2.42;;;;;;;17.04;51.51;97342.31;10467010;28;20058;-22
2022/03/14 04:15:22;;;;;;;6.90;2.30;;;;;;;17.10;52.03;97337.38;10466078;28;20113;-22
2022/03/14 04:20:23;;;;;;;2.47;1.77;;;;;;;17.08;51.96;97359.28;10471744;28;20504;-21
2022/03/14 04:25:24;;;;;;;2.58;1.95;;;;;;;17.07;49.50;97372.75;10473086;28;20144;-21
2022/03/14 04:30:25;;;;;;;2.60;1.52;;;;;;;17.03;49.02;97376.03;10474215;28;20120;-22
2022/03/14 04:35:25;;;;;;;1.90;1.73;;;;;;;17.01;48.93;97372.66;10469413;28;20061;-22
2022/03/14 04:40:26;;;;;;;1.77;1.67;;;;;;;16.98;48.68;97377.66;10477417;28;20040;-21
2022/03/14 04:45:26;;;;;;;3.63;1.87;;;;;;;17.03;48.27;97391.22;10470021;28;20060;-21
2022/03/14 04:50:27;;;;;;;2.30;1.83;;;;;;;17.05;48.98;97399.69;10461669;28;20275;-21
2022/03/14 04:55:28;;;;;;;1.75;1.55;;;;;;;17.03;48.58;97403.88;10450652;28;20040;-21
2022/03/14 05:00:29;;;;;;;2.00;1.80;;;;;;;17.04;48.53;97408.09;10441890;28;20386;-22
2022/03/14 05:05:30;;;;;;;2.10;1.70;;;;;;;17.05;48.70;97422.44;10444560;28;20029;-21
2022/03/14 05:10:32;;;;;;;1.70;1.40;;;;;;;17.07;48.88;97423.34;10461426;28;20033;-23
2022/03/14 05:15:33;;;;;;;1.73;1.50;;;;;;;17.09;48.91;97426.75;10460614;28;20649;-21
2022/03/14 05:20:37;;;;;;;2.83;2.22;;;;;;;17.15;51.44;97411.69;10472728;28;20073;-21
2022/03/14 05:25:38;;;;;;;3.97;1.90;;;;;;;17.20;51.97;97427.75;10458274;28;20083;-22
2022/03/14 05:30:38;;;;;;;3.50;1.73;;;;;;;17.19;51.61;97429.47;10474145;28;20451;-21
2022/03/14 05:35:39;;;;;;;2.55;1.70;;;;;;;17.13;48.72;97438.59;10443535;28;20428;-20
2022/03/14 05:40:40;;;;;;;5.10;2.00;;;;;;;17.12;49.44;97452.09;10476150;28;20459;-20
2022/03/14 05:45:40;;;;;;;5.10;1.35;;;;;;;17.12;48.76;97452.09;10468388;28;20159;-23
2022/03/14 05:50:41;;;;;;;5.30;1.80;;;;;;;17.15;48.48;97457.22;10458786;28;20033;-22
2022/03/14 05:55:41;;;;;;;10.23;1.60;;;;;;;17.03;47.08;97467.13;10473416;28;20040;-21
2022/03/14 06:00:41;;;;;;;7.47;1.57;;;;;;;17.05;46.95;97480.63;10460296;28;20032;-22
2022/03/14 06:05:43;;;;;;;2.40;1.63;;;;;;;17.12;48.42;97490.03;10471031;28;20054;-21
2022/03/14 06:10:46;;;;;;;5.28;1.33;;;;;;;17.09;48.36;97500.13;10467337;28;20556;-22
2022/03/14 06:15:47;;;;;;;14.80;2.40;;;;;;;17.09;49.14;97513.59;10431577;28;20270;-22
2022/03/14 06:20:47;;;;;;;11.35;2.35;;;;;;;16.95;48.89;97511.66;10469345;28;20493;-20
2022/03/14 06:25:50;;;;;;;4.10;2.00;;;;;;;17.06;48.49;97532.97;10470305;28;20036;-22
2022/03/14 06:30:50;;;;;;;8.40;1.98;;;;;;;16.89;46.30;97534.31;10470402;28;20419;-21
2022/03/14 06:35:51;;;;;;;14.13;2.00;;;;;;;16.97;48.36;97548.81;10458768;28;20036;-22
2022/03/14 06:40:51;;;;;;;5.65;1.58;;;;;;;17.07;49.32;97547.31;10473210;28;20036;-22
2022/03/14 06:45:52;;;;;;;4.28;1.92;;;;;;;17.09;49.55;97554.09;10459996;28;20492;-22
2022/03/14 06:50:52;;;;;;;6.57;2.47;;;;;;;17.10;50.12;97552.41;10458635;28;20492;-22
2022/03/14 06:55:53;;;;;;;5.53;1.60;;;;;;;17.09;49.26;97560.84;10469181;28;20316;-22
2022/03/14 07:00:53;;;;;;;4.27;1.77;;;;;;;17.10;48.90;97565.06;10435955;28;20643;-22
2022/03/14 07:05:54;;;;;;;4.28;1.92;;;;;;;17.06;48.90;97573.44;10469221;28;20286;-21
2022/03/14 07:10:54;;;;;;;3.30;1.40;;;;;;;17.08;49.32;97577.69;10470516;28;20024;-22
2022/03/14 07:15:54;;;;;;;3.90;1.50;;;;;;;17.07;49.84;97591.16;10460233;28;20169;-21
2022/03/14 07:20:55;;;;;;;2.53;1.50;;;;;;;17.08;48.63;97602.97;10467421;28;20306;-23
2022/03/14 07:25:55;;;;;;;2.77;1.63;;;;;;;17.08;49.69;97612.25;10466887;28;20028;-21
2022/03/14 07:30:56;;;;;;;3.38;1.92;;;;;;;17.08;49.13;97612.25;10466952;28;20291;-21
2022/03/14 07:35:56;;;;;;;4.05;1.65;;;;;;;17.12;50.85;97626.66;10458421;28;20040;-21
2022/03/14 07:40:57;;;;;;;2.23;1.30;;;;;;;17.17;50.95;97627.63;10447781;28;20033;-21
2022/03/14 07:46:01;;;;;;;6.75;1.35;;;;;;;17.19;50.94;97636.97;10458173;28;20078;-23
2022/03/14 07:51:06;;;;;;;5.35;1.52;;;;;;;17.14;50.71;97632.63;10454798;28;20043;-22
2022/03/14 07:56:07;;;;;;;3.58;1.27;;;;;;;17.10;48.94;97635.91;10440695;28;20510;-22
2022/03/14 08:01:08;;;;;;;2.03;1.10;;;;;;;17.08;50.07;97645.16;10466075;28;20039;-21
2022/03/14 08:06:11;;;;;;;2.25;1.30;;;;;;;17.06;49.26;97650.19;10465947;28;20029;-22
2022/03/14 08:11:13;;;;;;;3.05;2.00;;;;;;;17.08;49.85;97657.81;10466458;28;20473;-22
2022/03/14 08:16:13;;;;;;;2.97;1.52;;;;;;;17.08;49.16;97667.94;10470977;28;20220;-21
2022/03/14 08:21:14;;;;;;;3.53;1.60;;;;;;;17.07;49.01;97671.28;10468286;28;20040;-24
2022/03/14 08:26:15;;;;;;;2.23;1.50;;;;;;;17.06;49.43;97684.75;10459814;28;20400;-22
2022/03/14 08:31:18;;;;;;;1.80;1.20;;;;;;;17.06;48.67;97683.06;10431291;28;20291;-21
2022/03/14 08:36:21;;;;;;;3.75;1.52;;;;;;;17.05;48.87;97671.25;10445892;28;20036;-21
2022/03/14 08:41:21;;;;;;;3.42;1.48;;;;;;;17.05;49.42;97685.56;10458539;28;20448;-21
2022/03/14 08:46:22;;;;;;;3.40;1.35;;;;;;;17.13;50.81;97668.84;10454953;28;20033;-22
2022/03/14 08:51:23;;;;;;;2.17;1.52;;;;;;;17.18;50.96;97695.13;10461791;28;20033;-21
2022/03/14 08:56:23;;;;;;;1.40;1.25;;;;;;;17.19;50.86;97681.63;10445744;28;20033;-22
2022/03/14 09:01:25;;;;;;;2.45;1.13;;;;;;;17.08;48.68;97685.63;10451024;28;20025;-22
2022/03/14 09:06:25;;;;;;;2.45;1.23;;;;;;;17.02;48.85;97683.84;10440836;28;20107;-21
2022/03/14 09:11:26;;;;;;;1.63;1.10;;;;;;;17.02;48.77;97688.03;10466840;28;20033;-20
2022/03/14 09:16:27;;;;;;;2.10;1.50;;;;;;;16.98;49.03;97692.16;10472985;28;20290;-22
2022/03/14 09:21:28;;;;;;;2.88;1.27;;;;;;;17.00;49.51;97692.22;10465772;28;20037;-21
2022/03/14 09:26:30;;;;;;;1.67;1.10;;;;;;;17.00;48.84;97693.03;10463886;28;20050;-21
2022/03/14 09:31:31;;;;;;;1.20;1.10;;;;;;;17.03;49.00;97694.78;10468463;28;20036;-21
2022/03/14 09:36:31;;;;;;;3.50;1.48;;;;;;;17.07;49.21;97691.53;10469556;28;20059;-24
2022/03/14 09:41:33;;;;;;;1.60;1.50;;;;;;;17.11;49.10;97693.28;10462206;28;20067;-21
2022/03/14 09:46:36;;;;;;;1.27;1.15;;;;;;;17.09;48.88;97692.41;10471833;28;20405;-22
2022/03/14 09:51:39;;;;;;;2.10;1.42;;;;;;;17.09;49.04;97700.81;10441922;28;20037;-21
2022/03/14 09:56:43;;;;;;;2.33;1.17;;;;;;;17.15;50.02;97715.31;10448931;28;20521;-23
2022/03/14 10:01:43;;;;;;;2.03;1.52;;;;;;;17.21;50.47;97715.41;10439513;28;20029;-21
2022/03/14 10:06:44;;;;;;;2.53;1.37;;;;;;;17.20;49.83;97723.84;10472080;28;20025;-21
2022/03/14 10:11:44;;;;;;;1.90;1.02;;;;;;;17.15;48.84;97726.25;10472161;28;20286;-21
2022/03/14 10:16:45;;;;;;;3.85;2.20;;;;;;;17.11;48.36;97718.59;10465608;28;20043;-22
2022/03/14 10:21:46;;;;;;;5.38;2.35;;;;;;;17.11;48.95;97718.59;10470723;28;20110;-21
2022/03/14 10:26:47;;;;;;;1.73;1.42;;;;;;;17.10;49.12;97712.69;10466911;28;20120;-21
2022/03/14 10:31:54;;;;;;;1.98;1.52;;;;;;;17.10;49.26;97706.75;10439125;28;20025;-21
2022/03/14 10:36:57;;;;;;;2.28;1.60;;;;;;;17.09;49.01;97710.13;10453361;28;20520;-22
2022/03/14 10:42:02;;;;;;;2.70;1.40;;;;;;;17.08;49.67;97710.94;10464119;28;20560;-23
2022/03/14 10:47:05;;;;;;;2.88;1.52;;;;;;;17.07;48.69;97702.47;10459675;28;20507;-23
2022/03/14 10:52:11;;;;;;;2.45;1.88;;;;;;;17.06;49.07;97710.91;10446717;28;20052;-21
2022/03/14 10:57:25;;;;;;;2.03;1.50;;;;;;;17.05;49.36;97699.06;10463927;28;20037;-23
2022/03/14 11:02:28;;;;;;;2.20;1.50;;;;;;;17.08;49.34;97708.41;10460718;28;20029;-21
2022/03/14 11:07:32;;;;;;;1.30;1.10;;;;;;;17.18;50.93;97710.31;10466400;28;20505;-22
2022/03/14 11:12:32;;;;;;;1.75;1.33;;;;;;;17.20;50.83;97713.72;10457496;28;20567;-22
2022/03/14 11:17:34;;;;;;;1.75;1.13;;;;;;;17.17;49.41;97708.59;10466097;28;20032;-23
2022/03/14 11:22:35;;;;;;;2.17;1.42;;;;;;;17.14;48.96;97708.53;10425828;28;20112;-22
2022/03/14 11:27:36;;;;;;;1.95;1.15;;;;;;;17.15;49.13;97700.97;10432526;28;20117;-22
2022/03/14 11:32:37;;;;;;;2.17;1.58;;;;;;;17.10;48.99;97692.44;10467991;28;20037;-21
2022/03/14 11:37:38;;;;;;;1.65;1.42;;;;;;;17.19;49.71;97706.94;10463182;28;20032;-21
2022/03/14 11:42:38;;;;;;;5.45;1.88;;;;;;;16.96;45.37;97690.41;10455918;28;20106;-22
2022/03/14 11:47:39;;;;;;;4.97;1.50;;;;;;;16.96;47.71;97682.84;10421974;28;20405;-22
2022/03/14 11:52:41;;;;;;;2.53;1.00;;;;;;;17.06;48.49;97694.88;10425668;28;20060;-21
2022/03/14 11:57:44;;;;;;;3.28;1.55;;;;;;;17.07;48.69;97684.78;10463636;28;20481;-26
2022/03/14 12:02:44;;;;;;;3.58;1.50;;;;;;;17.09;48.85;97677.22;10457299;28;20055;-23
2022/03/14 12:07:44;;;;;;;1.42;1.30;;;;;;;17.10;48.45;97681.47;10457044;28;20029;-25
2022/03/14 12:12:49;;;;;;;10.00;3.10;;;;;;;17.15;51.96;97664.72;10441993;28;20033;-24
2022/03/14 12:17:50;;;;;;;3.22;1.92;;;;;;;17.21;53.60;97654.69;10424556;28;20491;-24
2022/03/14 12:22:50;;;;;;;4.10;2.00;;;;;;;17.24;53.90;97660.66;10439161;28;20044;-23
2022/03/14 12:27:51;;;;;;;1.85;1.05;;;;;;;17.17;49.21;97643.63;10463633;28;20523;-26
2022/03/14 12:32:53;;;;;;;2.80;1.48;;;;;;;17.11;48.77;97627.50;10464894;28;20401;-24
2022/03/14 12:38:11;;;;;;;17.20;2.42;;;;;;;17.18;49.88;97624.25;10441820;28;20063;-24
2022/03/14 12:43:12;;;;;;;5.53;1.73;;;;;;;17.15;49.18;97614.94;10433798;28;20041;-23
2022/03/14 12:48:19;;;;;;;2.22;1.20;;;;;;;17.16;49.59;97619.16;10461596;28;20039;-25
2022/03/14 12:53:37;;;;;;;3.75;1.35;;;;;;;17.16;49.42;97625.91;10470282;28;20039;-23
2022/03/14 12:58:38;;;;;;;3.83;1.30;;;;;;;17.14;49.08;97617.47;10451223;28;20121;-23
2022/03/14 13:03:39;;;;;;;3.47;1.50;;;;;;;17.12;49.68;97609.81;10459569;28;20032;-24
2022/03/14 13:08:50;;;;;;;4.63;1.10;;;;;;;17.09;49.23;97609.75;10441579;28;20033;-26
2022/03/14 13:13:50;;;;;;;2.80;1.55;;;;;;;17.12;49.45;97616.53;10453529;28;20039;-25
2022/03/14 13:18:53;;;;;;;3.35;1.30;;;;;;;17.12;49.16;97614.88;10470517;28;20047;-25
2022/03/14 13:24:02;;;;;;;11.70;2.85;;;;;;;17.20;50.41;97622.63;10458743;28;20086;-24
2022/03/14 13:29:04;;;;;;;9.30;1.98;;;;;;;17.40;50.18;97626.41;10470435;28;20255;-24
2022/03/14 13:34:07;;;;;;;7.45;2.17;;;;;;;17.33;49.07;97639.75;10431950;28;20037;-24
2022/03/14 13:39:10;;;;;;;13.57;1.75;;;;;;;17.18;49.22;97631.84;10458028;28;20051;-26
2022/03/14 13:44:19;;;;;;;8.48;1.58;;;;;;;17.20;48.96;97642.84;10459906;28;20313;-24
2022/03/14 13:49:23;;;;;;;3.35;1.20;;;;;;;17.15;48.89;97647.00;10441863;28;20029;-24
2022/03/14 13:54:26;;;;;;;3.40;1.50;;;;;;;17.12;48.92;97634.25;10474617;28;20393;-24
2022/03/14 13:59:30;;;;;;;6.55;1.92;;;;;;;17.11;48.95;97630.03;10439426;28;20124;-25
2022/03/14 14:04:46;;;;;;;3.47;1.17;;;;;;;17.11;48.98;97622.44;10465806;28;20037;-25
2022/03/14 14:09:49;;;;;;;2.90;1.17;;;;;;;17.13;49.29;97623.31;10445926;28;20039;-24
2022/03/14 14:14:51;;;;;;;7.95;1.85;;;;;;;17.10;48.64;97611.47;10463517;28;20349;-24
2022/03/14 14:20:06;;;;;;;4.50;1.25;;;;;;;17.10;42.71;97611.47;10463529;28;20534;-22
2022/03/14 14:25:12;;;;;;;7.75;1.45;;;;;;;16.84;41.76;97601.66;10473261;28;20517;-23
2022/03/14 14:30:13;;;;;;;10.25;2.30;;;;;;;17.06;44.00;97596.22;10454188;28;20025;-23
2022/03/14 14:35:13;;;;;;;5.23;1.20;;;;;;;17.20;44.30;97597.31;10434356;28;20036;-25
2022/03/14 14:40:14;;;;;;;3.38;1.58;;;;;;;17.26;45.49;97584.78;10469830;28;20291;-24
2022/03/14 14:45:15;;;;;;;4.68;1.20;;;;;;;17.17;47.02;97587.97;10465536;28;20458;-23
2022/03/14 14:50:18;;;;;;;4.43;1.20;;;;;;;17.15;45.72;97586.25;10465575;28;20029;-25
2022/03/14 14:55:19;;;;;;;5.07;1.27;;;;;;;16.91;42.84;97568.91;10468244;28;20090;-23
2022/03/14 15:00:23;;;;;;;4.70;0.95;;;;;;;17.03;47.15;97578.41;10465895;28;20111;-25
2022/03/14 15:05:24;;;;;;;4.13;1.30;;;;;;;17.07;48.00;97570.09;10463605;28;20123;-24
2022/03/14 15:10:25;;;;;;;4.72;1.65;;;;;;;17.05;48.30;97570.03;10462947;28;20338;-25
2022/03/14 15:15:27;;;;;;;3.05;0.98;;;;;;;17.08;48.60;97571.78;10460165;28;20065;-24
2022/03/14 15:20:29;;;;;;;2.05;1.10;;;;;;;17.06;48.41;97569.22;10464061;28;20524;-23
2022/03/14 15:25:30;;;;;;;4.30;1.20;;;;;;;17.07;48.64;97575.16;10442913;28;20037;-25
2022/03/14 15:30:31;;;;;;;3.00;1.50;;;;;;;17.06;48.66;97573.44;10463334;28;20186;-23
2022/03/14 15:35:31;;;;;;;8.07;1.38;;;;;;;17.03;48.48;97573.38;10448448;28;20040;-28
2022/03/14 15:40:32;;;;;;;8.38;1.70;;;;;;;17.13;48.60;97567.66;10453581;28;20219;-25
2022/03/14 15:45:32;;;;;;;16.75;2.28;;;;;;;17.25;50.03;97562.81;10468796;28;20035;-24
2022/03/14 15:50:32;;;;;;;12.48;2.15;;;;;;;17.25;50.18;97563.66;10457777;28;20120;-21
2022/03/14 15:55:34;;;;;;;8.70;1.33;;;;;;;17.17;48.80;97561.84;10462582;28;20079;-21
2022/03/14 16:00:34;;;;;;;5.47;1.70;;;;;;;17.11;48.86;97574.38;10461778;28;20032;-21
2022/03/14 16:05:43;;;;;;;5.88;1.30;;;;;;;17.10;49.22;97575.19;10431605;28;20037;-21
2022/03/14 16:10:43;;;;;;;4.60;1.52;;;;;;;17.03;50.20;97573.38;10458464;28;20028;-22
2022/03/14 16:15:43;;;;;;;2.22;0.98;;;;;;;17.07;48.62;97585.25;10459525;28;20090;-21
2022/03/14 16:20:44;;;;;;;4.32;1.08;;;;;;;17.06;48.95;97584.41;10460993;28;20043;-21
2022/03/14 16:25:46;;;;;;;2.22;1.05;;;;;;;16.99;48.90;97574.97;10422856;28;20108;-22
2022/03/14 16:30:47;;;;;;;1.75;0.90;;;;;;;17.05;48.75;97584.34;10462251;28;20037;-23
2022/03/14 16:35:47;;;;;;;3.92;1.20;;;;;;;17.05;48.83;97576.75;10434076;28;20427;-21
2022/03/14 16:40:48;;;;;;;12.43;1.57;;;;;;;17.02;48.33;97576.72;10463329;28;20068;-21
2022/03/14 16:45:49;;;;;;;2.15;0.75;;;;;;;17.04;48.79;97570.88;10460029;28;20901;-22
2022/03/14 16:50:50;;;;;;;6.43;1.13;;;;;;;17.20;50.58;97577.06;10458503;28;20149;-21
2022/03/14 16:55:51;;;;;;;6.15;1.48;;;;;;;17.26;50.35;97577.19;10432973;28;20033;-21
2022/03/14 17:00:51;;;;;;;6.90;2.07;;;;;;;17.23;49.63;97577.13;10433369;28;20115;-21
2022/03/14 17:05:52;;;;;;;1.27;0.88;;;;;;;17.14;49.08;97585.41;10450796;28;20293;-22
2022/03/14 17:10:52;;;;;;;6.68;1.02;;;;;;;17.14;49.04;97594.69;10455638;28;20058;-21
2022/03/14 17:15:53;;;;;;;0.80;0.65;;;;;;;17.15;48.99;97592.16;10459573;28;20081;-21
2022/03/14 17:20:56;;;;;;;1.00;0.77;;;;;;;17.12;48.65;97593.78;10459686;28;20041;-22
2022/03/14 17:25:56;;;;;;;1.70;0.95;;;;;;;17.10;48.75;97600.50;10450103;28;20037;-22
2022/03/14 17:30:57;;;;;;;6.10;1.15;;;;;;;17.09;49.27;97593.72;10468701;28;20033;-21
2022/03/14 17:35:58;;;;;;;2.28;0.88;;;;;;;17.10;49.38;97597.97;10461665;28;20131;-25
2022/03/14 17:40:59;;;;;;;3.80;1.08;;;;;;;17.10;49.36;97595.44;10461803;28;20044;-21
2022/03/14 17:46:00;;;;;;;2.40;1.90;;;;;;;17.10;49.40;97595.44;10471924;28;20115;-21
2022/03/14 17:51:00;;;;;;;2.80;1.02;;;;;;;17.10;49.25;97605.56;10469196;28;20032;-21
2022/03/14 17:56:01;;;;;;;7.05;1.63;;;;;;;17.12;51.55;97599.69;10466024;28;20093;-22
2022/03/14 18:01:01;;;;;;;10.60;1.70;;;;;;;17.24;52.64;97602.44;10468601;28;20045;-23
2022/03/14 18:06:01;;;;;;;4.90;1.45;;;;;;;17.27;52.39;97605.06;10469907;28;20318;-23
2022/03/14 18:11:02;;;;;;;3.13;0.97;;;;;;;17.21;50.74;97599.00;10452767;28;20036;-23
2022/03/14 18:16:04;;;;;;;2.35;1.00;;;;;;;17.14;49.21;97602.28;10446564;28;20749;-22
2022/03/14 18:21:04;;;;;;;2.28;1.10;;;;;;;17.15;48.72;97603.97;10440797;28;20408;-22
2022/03/14 18:26:05;;;;;;;1.40;0.80;;;;;;;17.11;48.79;97598.00;10464582;28;20036;-23
2022/03/14 18:31:08;;;;;;;2.92;0.70;;;;;;;17.12;48.59;97609.81;10459347;28;20486;-22
2022/03/14 18:36:09;;;;;;;4.78;0.95;;;;;;;17.16;49.86;97611.56;10436078;28;20272;-22
2022/03/14 18:41:10;;;;;;;2.90;0.80;;;;;;;17.16;49.12;97606.50;10468044;28;20087;-23
2022/03/14 18:46:10;;;;;;;1.40;0.87;;;;;;;17.20;49.43;97623.47;10460462;28;20028;-23
2022/03/14 18:51:11;;;;;;;3.77;1.10;;;;;;;17.24;49.44;97622.69;10452309;28;20102;-21
2022/03/14 18:56:11;;;;;;;2.92;1.05;;;;;;;17.23;49.22;97627.75;10460270;28;20029;-22
2022/03/14 19:01:11;;;;;;;1.45;0.90;;;;;;;17.23;49.01;97636.19;10451007;28;20484;-23
2022/03/14 19:06:13;;;;;;;6.87;1.80;;;;;;;17.27;52.47;97630.38;10417900;28;20507;-23
2022/03/14 19:11:14;;;;;;;4.78;1.38;;;;;;;17.32;53.69;97638.06;10443097;28;20294;-23
2022/03/14 19:16:16;;;;;;;4.63;1.30;;;;;;;17.30;50.96;97645.59;10418376;28;20031;-23
2022/03/14 19:21:16;;;;;;;1.90;0.88;;;;;;;17.26;49.39;97640.44;10454730;28;20419;-23
2022/03/14 19:26:17;;;;;;;3.85;0.93;;;;;;;17.16;48.94;97628.44;10423207;28;20107;-22
2022/03/14 19:31:18;;;;;;;5.45;1.00;;;;;;;17.24;49.01;97642.09;10453362;28;20033;-21
2022/03/14 19:36:19;;;;;;;0.85;0.70;;;;;;;17.25;48.67;97648.88;10460334;28;20112;-22
2022/03/14 19:41:20;;;;;;;1.35;0.80;;;;;;;17.15;49.57;97652.88;10458452;28;20034;-23
2022/03/14 19:46:21;;;;;;;1.27;0.93;;;;;;;17.19;48.94;97646.22;10442895;28;20504;-22
2022/03/14 19:51:21;;;;;;;1.05;0.80;;;;;;;17.20;49.14;97640.31;10419384;28;20080;-22
2022/03/14 19:56:21;;;;;;;3.17;1.05;;;;;;;17.21;49.11;97647.09;10443635;28;20446;-22
2022/03/14 20:01:22;;;;;;;2.92;1.40;;;;;;;17.21;49.06;97659.75;10441326;28;20095;-22
2022/03/14 20:06:26;;;;;;;2.08;0.88;;;;;;;17.21;48.92;97664.81;10445721;28;20025;-23
2022/03/14 20:11:27;;;;;;;2.10;1.00;;;;;;;17.19;48.72;97656.34;10447886;28;20515;-24
2022/03/14 20:16:28;;;;;;;7.20;1.60;;;;;;;17.31;54.86;97659.13;10447369;28;20025;-22
2022/03/14 20:21:29;;;;;;;5.70;1.63;;;;;;;17.37;54.73;97661.78;10435720;28;20100;-21
2022/03/14 20:26:29;;;;;;;6.10;1.37;;;;;;;17.30;51.73;97672.56;10438368;28;20026;-23
2022/03/14 20:31:30;;;;;;;8.87;1.47;;;;;;;17.23;50.72;97674.13;10414339;28;20378;-21
2022/03/14 20:36:31;;;;;;;3.22;0.82;;;;;;;17.21;49.66;97675.78;10440096;28;20401;-22
2022/03/14 20:41:32;;;;;;;2.50;1.05;;;;;;;17.18;49.08;97669.81;10432121;28;20039;-22
2022/03/14 20:46:33;;;;;;;2.23;0.97;;;;;;;17.17;49.00;97665.59;10430081;28;20037;-22
2022/03/14 20:51:34;;;;;;;2.80;1.00;;;;;;;17.17;48.82;97663.88;10464544;28;20295;-25
2022/03/14 20:56:34;;;;;;;2.15;0.80;;;;;;;17.17;48.93;97658.00;10464009;28;20041;-22
2022/03/14 21:01:35;;;;;;;3.17;1.20;;;;;;;17.18;48.90;97647.03;10457290;28;20095;-22
2022/03/14 21:06:36;;;;;;;2.70;1.00;;;;;;;17.20;50.70;97647.91;10473548;28;20053;-23
2022/03/14 21:11:38;;;;;;;4.13;1.40;;;;;;;17.21;51.54;97642.91;10476623;28;20032;-23
2022/03/14 21:16:40;;;;;;;3.13;1.35;;;;;;;17.22;50.44;97651.31;10443404;28;20039;-24
2022/03/14 21:21:42;;;;;;;2.00;1.10;;;;;;;17.23;52.38;97648.84;10442200;28;20123;-22
2022/03/14 21:26:43;;;;;;;5.65;1.27;;;;;;;17.32;52.96;97649.00;10466928;28;20082;-23
2022/03/14 21:31:44;;;;;;;9.32;1.55;;;;;;;17.34;53.01;97641.44;10470056;28;20037;-24
2022/03/14 21:36:46;;;;;;;3.90;1.37;;;;;;;17.26;51.20;97638.75;10464848;28;20033;-23
2022/03/14 21:41:46;;;;;;;1.50;0.82;;;;;;;17.22;49.21;97652.19;10471781;28;20485;-22
2022/03/14 21:46:48;;;;;;;1.67;0.77;;;;;;;17.21;50.38;97647.09;10461166;28;20021;-24
2022/03/14 21:51:49;;;;;;;2.33;0.75;;;;;;;17.00;49.16;97618.84;10413282;28;20033;-23
2022/03/14 21:56:49;;;;;;;1.30;0.70;;;;;;;17.17;49.21;97643.63;10434749;28;20033;-23
2022/03/14 22:01:49;;;;;;;1.40;0.70;;;;;;;17.16;49.26;97647.00;10459797;28;20076;-22
2022/03/14 22:06:50;;;;;;;3.10;1.08;;;;;;;17.17;50.39;97640.28;10454788;28;20367;-24
2022/03/14 22:11:50;;;;;;;1.40;0.95;;;;;;;17.17;49.09;97637.75;10463970;28;20036;-22
2022/03/14 22:16:52;;;;;;;2.40;0.80;;;;;;;17.16;49.18;97641.09;10461516;28;20037;-23
2022/03/14 22:21:53;;;;;;;1.88;1.08;;;;;;;17.15;49.08;97642.75;10465258;28;20833;-22
2022/03/14 22:26:54;;;;;;;1.27;0.68;;;;;;;17.12;48.78;97631.72;10453042;28;20103;-24
2022/03/14 22:31:55;;;;;;;1.48;1.00;;;;;;;17.17;52.03;97625.09;10461293;28;20447;-22
2022/03/14 22:36:55;;;;;;;2.55;1.20;;;;;;;17.30;52.24;97637.13;10442685;28;20044;-22
2022/03/14 22:41:56;;;;;;;2.25;0.90;;;;;;;17.30;52.26;97637.13;10467217;28;20127;-24
2022/03/14 22:46:56;;;;;;;1.40;0.70;;;;;;;17.20;49.46;97642.84;10459784;28;20040;-23
2022/03/14 22:51:56;;;;;;;1.20;0.85;;;;;;;17.15;48.87;97640.22;10460620;28;20371;-22
2022/03/14 22:56:57;;;;;;;1.45;0.82;;;;;;;17.16;49.19;97641.09;10466835;28;20519;-23
2022/03/14 23:01:58;;;;;;;0.82;0.80;;;;;;;17.13;49.10;97641.03;10460931;28;20052;-23
2022/03/14 23:08:21;;;;;;;1.70;0.60;;;;;;;17.13;49.01;97657.06;10465832;28;20388;-22
2022/03/14 23:12:19;;;;;;;1.50;0.70;;;;;;;17.12;48.83;97659.56;10462449;28;20543;-22
2022/03/14 23:17:20;;;;;;;1.63;1.02;;;;;;;17.12;49.05;97655.38;10467021;28;20036;-22
2022/03/14 23:22:20;;;;;;;0.90;0.60;;;;;;;17.11;48.95;97647.75;10452021;28;20060;-22